Time;durP1;ratioP1;P1;durP2;ratioP2;P2;SDS_P1;SDS_P2;PMS_P1;PMS_P2;Temp;Humidity;BMP_temperature;BMP_pressure;BME280_temperature;BME280_humidity;BME280_pressure;Samples;Min_cycle;Max_cycle;Signal;HPM_P1;HPM_P2
2021/04/07 00:02:20;;;;;;;10.05;1.02;;;;;;;;;;5016872;28;20081;-57
2021/04/07 00:04:47;;;;;;;3.65;0.68;;;;;;;;;;5008043;28;20405;-59
2021/04/07 00:07:13;;;;;;;2.17;0.60;;;;;;;;;;4979737;28;20288;-55
2021/04/07 00:09:39;;;;;;;4.88;0.85;;;;;;;;;;4990381;28;20045;-59
2021/04/07 00:12:07;;;;;;;3.65;1.02;;;;;;;;;;4985352;28;20123;-60
2021/04/07 00:14:33;;;;;;;3.33;0.90;;;;;;;;;;5016283;28;20061;-57
2021/04/07 00:16:59;;;;;;;12.32;1.25;;;;;;;;;;4996587;28;20038;-61
2021/04/07 00:19:25;;;;;;;4.70;1.23;;;;;;;;;;4974396;28;20058;-56
2021/04/07 00:21:51;;;;;;;4.35;1.10;;;;;;;;;;4981255;28;20142;-60
2021/04/07 00:24:17;;;;;;;4.28;0.90;;;;;;;;;;4980372;28;20058;-60
2021/04/07 00:26:43;;;;;;;1.48;0.45;;;;;;;;;;4981456;28;20358;-60
2021/04/07 00:29:10;;;;;;;7.28;0.88;;;;;;;;;;4991965;28;20066;-58
2021/04/07 00:31:36;;;;;;;6.25;0.57;;;;;;;;;;5000579;28;20050;-58
2021/04/07 00:34:02;;;;;;;7.60;0.82;;;;;;;;;;4984450;28;20047;-59
2021/04/07 00:36:28;;;;;;;5.57;0.77;;;;;;;;;;4998332;28;20116;-58
2021/04/07 00:38:54;;;;;;;7.55;0.82;;;;;;;;;;5003743;28;20038;-60
2021/04/07 00:41:20;;;;;;;6.10;0.68;;;;;;;;;;5002367;28;20042;-52
2021/04/07 00:43:46;;;;;;;4.65;0.55;;;;;;;;;;4989506;28;20057;-57
2021/04/07 00:46:13;;;;;;;6.25;0.57;;;;;;;;;;4997112;28;20038;-53
2021/04/07 00:48:39;;;;;;;3.40;0.70;;;;;;;;;;4992633;28;20046;-53
2021/04/07 00:51:05;;;;;;;6.85;0.90;;;;;;;;;;4981389;28;20042;-53
2021/04/07 00:53:31;;;;;;;4.30;0.50;;;;;;;;;;4982060;28;20049;-53
2021/04/07 00:55:57;;;;;;;4.68;0.73;;;;;;;;;;4987975;28;20031;-55
2021/04/07 00:58:25;;;;;;;2.50;0.60;;;;;;;;;;4985048;28;20520;-56
2021/04/07 01:00:51;;;;;;;5.63;0.63;;;;;;;;;;5001812;28;20048;-54
2021/04/07 01:03:18;;;;;;;4.80;0.82;;;;;;;;;;5003603;28;20042;-56
2021/04/07 01:05:44;;;;;;;5.97;0.82;;;;;;;;;;4983605;28;20047;-60
2021/04/07 01:08:10;;;;;;;3.63;0.60;;;;;;;;;;4982221;28;20050;-53
2021/04/07 01:10:37;;;;;;;6.88;0.70;;;;;;;;;;4980031;28;20051;-52
2021/04/07 01:13:04;;;;;;;4.57;0.80;;;;;;;;;;4983918;28;20098;-60
2021/04/07 01:15:31;;;;;;;1.60;0.57;;;;;;;;;;4982414;28;20061;-56
2021/04/07 01:17:57;;;;;;;7.28;0.80;;;;;;;;;;4985201;28;20042;-57
2021/04/07 01:20:24;;;;;;;3.40;0.60;;;;;;;;;;4980254;28;20034;-56
2021/04/07 01:22:53;;;;;;;2.97;0.70;;;;;;;;;;4982552;28;20247;-57
2021/04/07 01:25:20;;;;;;;4.50;0.65;;;;;;;;;;4989298;28;20049;-57
2021/04/07 01:27:46;;;;;;;2.55;0.68;;;;;;;;;;5018454;28;20042;-55
2021/04/07 01:30:14;;;;;;;7.50;0.77;;;;;;;;;;4997556;28;20050;-59
2021/04/07 01:32:41;;;;;;;4.93;0.90;;;;;;;;;;5001668;28;20033;-55
2021/04/07 01:35:08;;;;;;;5.07;0.63;;;;;;;;;;4998241;28;20030;-61
2021/04/07 01:37:35;;;;;;;5.60;0.80;;;;;;;;;;5017563;28;20030;-57
2021/04/07 01:40:01;;;;;;;5.70;0.70;;;;;;;;;;5002773;28;20477;-57
2021/04/07 01:42:29;;;;;;;4.43;0.90;;;;;;;;;;4982840;28;20057;-59
2021/04/07 01:44:55;;;;;;;1.07;0.47;;;;;;;;;;4997858;28;20172;-59
2021/04/07 01:47:21;;;;;;;3.80;0.73;;;;;;;;;;4981051;28;20056;-59
2021/04/07 01:49:47;;;;;;;6.13;0.98;;;;;;;;;;5001733;28;20043;-60
2021/04/07 01:52:14;;;;;;;5.60;0.98;;;;;;;;;;4993535;28;20065;-59
2021/04/07 01:54:40;;;;;;;3.75;0.80;;;;;;;;;;5004488;28;20501;-57
2021/04/07 01:57:07;;;;;;;3.80;0.60;;;;;;;;;;4989793;28;20046;-60
2021/04/07 01:59:34;;;;;;;2.53;0.70;;;;;;;;;;4984692;28;20129;-57
2021/04/07 02:02:02;;;;;;;3.25;0.73;;;;;;;;;;4981761;28;20047;-60
2021/04/07 02:04:28;;;;;;;4.68;0.80;;;;;;;;;;4972575;28;20132;-56
2021/04/07 02:06:54;;;;;;;2.05;0.70;;;;;;;;;;4980080;28;20500;-59
2021/04/07 02:09:21;;;;;;;3.67;0.75;;;;;;;;;;5000603;28;20057;-59
2021/04/07 02:11:48;;;;;;;3.00;0.82;;;;;;;;;;4992521;28;20041;-57
2021/04/07 02:14:14;;;;;;;1.55;0.60;;;;;;;;;;4970452;28;20043;-50
2021/04/07 02:16:40;;;;;;;5.43;0.70;;;;;;;;;;4980465;28;20051;-50
2021/04/07 02:19:07;;;;;;;1.75;0.73;;;;;;;;;;4986233;28;20046;-49
2021/04/07 02:21:34;;;;;;;1.23;0.50;;;;;;;;;;4986499;28;20049;-56
2021/04/07 02:24:00;;;;;;;5.65;0.80;;;;;;;;;;4984581;28;20060;-56
2021/04/07 02:26:26;;;;;;;2.30;0.52;;;;;;;;;;5001734;28;20054;-53
2021/04/07 02:28:52;;;;;;;1.23;0.50;;;;;;;;;;4983660;28;20053;-59
2021/04/07 02:31:19;;;;;;;1.75;0.60;;;;;;;;;;4999907;28;20066;-59
2021/04/07 02:33:46;;;;;;;4.60;0.70;;;;;;;;;;4979894;28;20083;-59
2021/04/07 02:36:14;;;;;;;1.65;0.80;;;;;;;;;;4982541;28;20274;-56
2021/04/07 02:38:40;;;;;;;1.17;0.50;;;;;;;;;;4993129;28;20031;-59
2021/04/07 02:41:06;;;;;;;2.22;0.65;;;;;;;;;;4972484;28;20484;-59
2021/04/07 02:43:32;;;;;;;0.22;0.22;;;;;;;;;;4979110;28;20035;-56
2021/04/07 02:45:59;;;;;;;1.42;0.50;;;;;;;;;;4976279;28;20125;-57
2021/04/07 02:48:25;;;;;;;0.68;0.40;;;;;;;;;;4979652;28;20054;-56
2021/04/07 02:50:52;;;;;;;1.33;0.40;;;;;;;;;;4983997;28;20362;-58
2021/04/07 02:53:18;;;;;;;4.03;0.60;;;;;;;;;;4980591;28;20112;-56
2021/04/07 02:55:44;;;;;;;1.45;0.50;;;;;;;;;;4973351;28;20399;-56
2021/04/07 02:58:10;;;;;;;2.20;0.60;;;;;;;;;;4961574;28;20097;-58
2021/04/07 03:00:36;;;;;;;3.88;0.70;;;;;;;;;;4998172;28;20079;-54
2021/04/07 03:03:02;;;;;;;6.53;0.80;;;;;;;;;;4982948;28;20504;-57
2021/04/07 03:05:28;;;;;;;4.13;0.70;;;;;;;;;;4985781;28;20038;-60
2021/04/07 03:07:55;;;;;;;2.88;0.43;;;;;;;;;;4982126;28;20043;-59
2021/04/07 03:10:21;;;;;;;1.80;0.55;;;;;;;;;;4965426;28;20047;-59
2021/04/07 03:12:48;;;;;;;1.67;0.57;;;;;;;;;;4965360;28;20356;-60
2021/04/07 03:15:14;;;;;;;3.42;0.70;;;;;;;;;;4972257;28;20508;-60
2021/04/07 03:17:40;;;;;;;3.03;0.60;;;;;;;;;;4982475;28;20087;-59
2021/04/07 03:20:07;;;;;;;2.90;0.52;;;;;;;;;;4978095;28;20480;-56
2021/04/07 03:22:34;;;;;;;3.22;0.75;;;;;;;;;;5008296;28;20519;-56
2021/04/07 03:25:01;;;;;;;3.15;0.68;;;;;;;;;;4996985;28;20516;-56
2021/04/07 03:27:27;;;;;;;2.75;0.50;;;;;;;;;;5004099;28;20053;-53
2021/04/07 03:29:53;;;;;;;2.15;0.50;;;;;;;;;;4994666;28;20379;-53
2021/04/07 03:32:20;;;;;;;0.77;0.25;;;;;;;;;;4981684;28;20082;-53
2021/04/07 03:34:46;;;;;;;5.75;0.80;;;;;;;;;;4979979;28;20581;-55
2021/04/07 03:37:12;;;;;;;1.92;0.60;;;;;;;;;;4983291;28;20047;-56
2021/04/07 03:39:38;;;;;;;4.32;0.60;;;;;;;;;;4983332;28;20082;-52
2021/04/07 03:42:05;;;;;;;3.78;0.55;;;;;;;;;;4998789;28;20042;-55
2021/04/07 03:44:31;;;;;;;1.98;0.52;;;;;;;;;;5002797;28;20042;-56
2021/04/07 03:46:57;;;;;;;4.55;0.65;;;;;;;;;;4980374;28;20061;-60
2021/04/07 03:49:23;;;;;;;4.57;0.65;;;;;;;;;;4982122;28;20058;-59
2021/04/07 03:51:49;;;;;;;1.83;0.55;;;;;;;;;;4991197;28;20045;-57
2021/04/07 03:54:18;;;;;;;4.15;0.57;;;;;;;;;;5001646;28;20038;-58
2021/04/07 03:56:43;;;;;;;2.70;0.50;;;;;;;;;;5005244;28;20112;-60
2021/04/07 03:59:10;;;;;;;1.73;0.40;;;;;;;;;;5001952;28;20038;-54
2021/04/07 04:01:36;;;;;;;2.55;0.60;;;;;;;;;;4988721;28;20046;-57
2021/04/07 04:04:02;;;;;;;1.80;0.50;;;;;;;;;;4986025;28;20049;-57
2021/04/07 04:06:28;;;;;;;3.92;0.30;;;;;;;;;;5023466;28;20106;-59
2021/04/07 04:08:54;;;;;;;4.13;0.60;;;;;;;;;;5041891;28;20044;-56
2021/04/07 04:11:20;;;;;;;1.40;0.38;;;;;;;;;;5020627;28;20216;-56
2021/04/07 04:13:46;;;;;;;2.03;0.43;;;;;;;;;;5021357;28;20037;-58
2021/04/07 04:16:13;;;;;;;1.80;0.47;;;;;;;;;;5018267;28;20041;-59
2021/04/07 04:18:39;;;;;;;2.13;0.70;;;;;;;;;;5004461;28;20049;-59
2021/04/07 04:21:06;;;;;;;2.05;0.50;;;;;;;;;;5021452;28;20446;-54
2021/04/07 04:23:32;;;;;;;3.83;0.40;;;;;;;;;;5018519;28;20037;-57
2021/04/07 04:25:58;;;;;;;4.57;0.60;;;;;;;;;;5011285;28;20044;-59
2021/04/07 04:28:24;;;;;;;1.65;0.50;;;;;;;;;;5017237;28;20080;-56
2021/04/07 04:30:50;;;;;;;1.00;0.57;;;;;;;;;;5026962;28;20038;-58
2021/04/07 04:33:17;;;;;;;4.93;0.57;;;;;;;;;;5040593;28;20033;-56
2021/04/07 04:35:43;;;;;;;1.73;0.40;;;;;;;;;;5027921;28;20102;-57
2021/04/07 04:38:09;;;;;;;5.32;0.80;;;;;;;;;;5024351;28;20042;-57
2021/04/07 04:40:35;;;;;;;1.35;0.30;;;;;;;;;;5026022;28;20047;-58
2021/04/07 04:43:01;;;;;;;2.40;0.50;;;;;;;;;;5040785;28;20123;-58
2021/04/07 04:45:27;;;;;;;5.28;0.68;;;;;;;;;;5039118;28;20493;-50
2021/04/07 04:47:53;;;;;;;1.60;0.38;;;;;;;;;;5005799;28;20041;-56
2021/04/07 04:50:20;;;;;;;3.60;0.60;;;;;;;;;;5027541;28;20048;-57
2021/04/07 04:52:46;;;;;;;1.23;0.45;;;;;;;;;;5038688;28;20602;-54
2021/04/07 04:55:12;;;;;;;1.20;0.40;;;;;;;;;;5007150;28;20061;-56
2021/04/07 04:57:38;;;;;;;2.58;0.50;;;;;;;;;;5007801;28;20042;-57
2021/04/07 05:00:06;;;;;;;1.70;0.30;;;;;;;;;;5002688;28;20093;-55
2021/04/07 05:02:33;;;;;;;0.55;0.20;;;;;;;;;;5008102;28;20048;-54
2021/04/07 05:04:59;;;;;;;7.47;1.65;;;;;;;;;;5020023;28;20033;-53
2021/04/07 05:07:25;;;;;;;5.70;1.58;;;;;;;;;;5030363;28;20118;-52
2021/04/07 05:09:51;;;;;;;1.48;0.50;;;;;;;;;;5011704;28;20045;-55
2021/04/07 05:12:19;;;;;;;1.75;0.70;;;;;;;;;;5033799;28;20127;-58
2021/04/07 05:14:48;;;;;;;3.15;0.60;;;;;;;;;;5034090;28;20510;-58
2021/04/07 05:17:14;;;;;;;2.20;0.90;;;;;;;;;;5018565;28;20057;-59
2021/04/07 05:19:40;;;;;;;1.67;0.60;;;;;;;;;;5034404;28;20055;-55
2021/04/07 05:22:08;;;;;;;4.18;0.60;;;;;;;;;;5020878;28;20041;-56
2021/04/07 05:24:35;;;;;;;1.58;0.60;;;;;;;;;;5036049;28;20045;-56
2021/04/07 05:27:01;;;;;;;0.65;0.50;;;;;;;;;;5035998;28;20393;-57
2021/04/07 05:29:27;;;;;;;0.30;0.30;;;;;;;;;;5011822;28;20030;-57
2021/04/07 05:31:54;;;;;;;1.35;0.50;;;;;;;;;;5018544;28;20041;-58
2021/04/07 05:34:20;;;;;;;1.52;0.90;;;;;;;;;;5016127;28;20030;-59
2021/04/07 05:36:46;;;;;;;1.63;0.40;;;;;;;;;;5016342;28;20056;-60
2021/04/07 05:39:12;;;;;;;0.40;0.40;;;;;;;;;;5035545;28;20053;-59
2021/04/07 05:41:42;;;;;;;2.45;0.63;;;;;;;;;;5015511;28;20041;-57
2021/04/07 05:44:08;;;;;;;1.50;0.50;;;;;;;;;;5019418;28;20081;-57
2021/04/07 05:46:34;;;;;;;1.45;0.50;;;;;;;;;;5035387;28;20048;-56
2021/04/07 05:49:00;;;;;;;0.60;0.50;;;;;;;;;;5035048;28;20081;-55
2021/04/07 05:51:26;;;;;;;1.83;0.63;;;;;;;;;;5020023;28;20081;-59
2021/04/07 05:53:52;;;;;;;1.13;0.55;;;;;;;;;;5020275;28;20041;-58
2021/04/07 05:56:18;;;;;;;0.47;0.35;;;;;;;;;;5017050;28;20033;-58
2021/04/07 05:58:45;;;;;;;1.77;0.77;;;;;;;;;;5022456;28;20486;-58
2021/04/07 06:01:11;;;;;;;1.88;0.57;;;;;;;;;;5017281;28;20037;-57
2021/04/07 06:03:37;;;;;;;2.15;0.63;;;;;;;;;;5023683;28;20037;-58
2021/04/07 06:06:06;;;;;;;2.42;0.50;;;;;;;;;;5032444;28;20033;-55
2021/04/07 06:08:32;;;;;;;1.83;0.70;;;;;;;;;;5037907;28;20037;-59
2021/04/07 06:10:58;;;;;;;1.23;0.70;;;;;;;;;;5016945;28;20285;-56
2021/04/07 06:13:24;;;;;;;1.15;0.82;;;;;;;;;;5036797;28;20339;-59
2021/04/07 06:15:51;;;;;;;3.67;0.80;;;;;;;;;;5020021;28;20036;-58
2021/04/07 06:18:17;;;;;;;5.15;1.90;;;;;;;;;;5024424;28;20479;-54
2021/04/07 06:20:43;;;;;;;6.18;2.22;;;;;;;;;;5024601;28;20073;-56
2021/04/07 06:23:10;;;;;;;4.32;1.38;;;;;;;;;;5040173;28;20049;-55
2021/04/07 06:25:37;;;;;;;1.58;0.80;;;;;;;;;;5014636;28;20061;-55
2021/04/07 06:28:04;;;;;;;2.15;0.73;;;;;;;;;;5039475;28;20074;-55
2021/04/07 06:30:43;;;;;;;1.35;0.85;;;;;;;;;;5028923;28;20144;-56
2021/04/07 06:33:11;;;;;;;1.48;0.80;;;;;;;;;;5007512;28;20045;-53
2021/04/07 06:35:38;;;;;;;1.95;0.80;;;;;;;;;;5006185;28;20057;-55
2021/04/07 06:38:04;;;;;;;1.80;0.90;;;;;;;;;;5002269;28;20046;-57
2021/04/07 06:40:30;;;;;;;2.67;1.00;;;;;;;;;;5005874;28;20539;-55
2021/04/07 06:42:57;;;;;;;1.67;0.80;;;;;;;;;;5001370;28;20037;-54
2021/04/07 06:45:23;;;;;;;2.20;1.00;;;;;;;;;;5005942;28;20038;-54
2021/04/07 06:47:50;;;;;;;4.22;1.20;;;;;;;;;;5002730;28;20042;-54
2021/04/07 06:50:17;;;;;;;2.22;0.90;;;;;;;;;;5002966;28;20069;-56
2021/04/07 06:52:44;;;;;;;2.60;1.20;;;;;;;;;;5023425;28;20049;-55
2021/04/07 06:55:10;;;;;;;6.95;1.30;;;;;;;;;;5041990;28;20076;-56
2021/04/07 06:57:36;;;;;;;3.35;1.10;;;;;;;;;;5037966;28;20042;-52
2021/04/07 07:00:05;;;;;;;4.57;1.13;;;;;;;;;;4995463;28;20119;-56
2021/04/07 07:02:34;;;;;;;5.15;0.98;;;;;;;;;;5020915;28;20049;-56
2021/04/07 07:05:01;;;;;;;8.38;1.10;;;;;;;;;;5019502;28;20076;-52
2021/04/07 07:07:28;;;;;;;9.75;1.08;;;;;;;;;;5002877;28;20044;-54
2021/04/07 07:09:54;;;;;;;5.43;1.17;;;;;;;;;;5018010;28;20044;-51
2021/04/07 07:12:21;;;;;;;3.75;1.08;;;;;;;;;;5014822;28;20041;-57
2021/04/07 07:14:47;;;;;;;5.80;1.88;;;;;;;;;;5004896;28;20158;-55
2021/04/07 07:17:13;;;;;;;16.13;4.28;;;;;;;;;;5022906;28;20085;-54
2021/04/07 07:19:39;;;;;;;8.63;1.55;;;;;;;;;;5029764;28;20529;-54
2021/04/07 07:22:06;;;;;;;5.70;0.90;;;;;;;;;;5025782;28;20048;-57
2021/04/07 07:24:34;;;;;;;6.18;1.10;;;;;;;;;;5022317;28;20094;-57
2021/04/07 07:27:01;;;;;;;4.50;1.05;;;;;;;;;;5022944;28;20042;-56
2021/04/07 07:29:28;;;;;;;8.68;0.90;;;;;;;;;;5030090;28;20041;-55
2021/04/07 07:32:02;;;;;;;4.03;1.20;;;;;;;;;;5037419;28;20041;-56
2021/04/07 07:34:29;;;;;;;3.67;0.90;;;;;;;;;;5019619;28;20045;-56
2021/04/07 07:36:56;;;;;;;6.07;0.68;;;;;;;;;;5024499;28;20102;-53
2021/04/07 07:39:28;;;;;;;10.27;1.33;;;;;;;;;;5017971;28;20326;-53
2021/04/07 07:41:59;;;;;;;4.40;0.77;;;;;;;;;;5018353;28;20119;-56
2021/04/07 07:44:25;;;;;;;2.85;0.47;;;;;;;;;;5019050;28;20093;-55
2021/04/07 07:46:58;;;;;;;5.85;0.73;;;;;;;;;;5024901;28;20471;-55
2021/04/07 07:49:24;;;;;;;4.70;0.70;;;;;;;;;;5022804;28;20045;-56
2021/04/07 07:51:55;;;;;;;1.73;0.40;;;;;;;;;;5004520;28;20119;-55
2021/04/07 07:54:21;;;;;;;2.40;0.50;;;;;;;;;;5006436;28;20066;-54
2021/04/07 07:56:48;;;;;;;4.38;0.35;;;;;;;;;;5036728;28;20479;-57
2021/04/07 07:59:25;;;;;;;3.38;0.60;;;;;;;;;;5041770;28;20049;-54
2021/04/07 08:01:52;;;;;;;8.50;0.80;;;;;;;;;;4992191;28;20042;-56
2021/04/07 08:04:18;;;;;;;2.72;0.50;;;;;;;;;;4994820;28;20042;-57
2021/04/07 08:06:44;;;;;;;6.30;0.70;;;;;;;;;;4978541;28;20071;-56
2021/04/07 08:09:10;;;;;;;3.75;0.50;;;;;;;;;;4980037;28;20051;-55
2021/04/07 08:11:36;;;;;;;3.28;0.70;;;;;;;;;;4996738;28;20157;-55
2021/04/07 08:14:02;;;;;;;4.60;0.80;;;;;;;;;;4986399;28;20030;-55
2021/04/07 08:16:31;;;;;;;3.78;0.68;;;;;;;;;;5003294;28;20488;-54
2021/04/07 08:18:57;;;;;;;4.78;0.57;;;;;;;;;;4980797;28;20148;-53
2021/04/07 08:21:23;;;;;;;7.53;0.70;;;;;;;;;;4978333;28;20063;-55
2021/04/07 08:23:53;;;;;;;3.80;0.60;;;;;;;;;;4980968;28;20038;-57
2021/04/07 08:26:21;;;;;;;9.35;1.27;;;;;;;;;;4993561;28;20077;-52
2021/04/07 08:28:47;;;;;;;6.47;1.00;;;;;;;;;;5001825;28;20057;-56
2021/04/07 08:31:13;;;;;;;4.80;0.75;;;;;;;;;;4996223;28;20480;-54
2021/04/07 08:33:43;;;;;;;12.48;1.10;;;;;;;;;;4980375;28;20048;-56
2021/04/07 08:36:09;;;;;;;14.75;0.98;;;;;;;;;;4980350;28;20091;-57
2021/04/07 08:38:36;;;;;;;5.38;0.88;;;;;;;;;;4996795;28;20175;-58
2021/04/07 08:41:10;;;;;;;9.40;1.40;;;;;;;;;;5006446;28;20064;-54
2021/04/07 08:43:36;;;;;;;11.70;1.58;;;;;;;;;;5011438;28;20054;-57
2021/04/07 08:46:10;;;;;;;20.42;2.72;;;;;;;;;;4988683;28;20420;-54
2021/04/07 08:48:37;;;;;;;23.48;3.13;;;;;;;;;;4969782;28;20504;-56
2021/04/07 08:51:04;;;;;;;16.00;2.17;;;;;;;;;;4981155;28;20042;-54
2021/04/07 08:53:31;;;;;;;26.52;2.30;;;;;;;;;;4977757;28;20050;-55
2021/04/07 08:55:57;;;;;;;32.90;3.05;;;;;;;;;;4982312;28;20042;-56
2021/04/07 08:58:25;;;;;;;32.13;2.92;;;;;;;;;;4978278;28;20136;-56
2021/04/07 09:00:52;;;;;;;18.17;1.85;;;;;;;;;;4980264;28;20040;-54
2021/04/07 09:03:21;;;;;;;20.13;2.63;;;;;;;;;;4984578;28;20046;-53
2021/04/07 09:05:48;;;;;;;12.43;1.90;;;;;;;;;;5019958;28;20053;-51
2021/04/07 09:08:15;;;;;;;8.57;1.23;;;;;;;;;;5009561;28;20040;-56
2021/04/07 09:10:42;;;;;;;10.82;1.55;;;;;;;;;;5000822;28;20034;-55
2021/04/07 09:13:10;;;;;;;31.10;1.60;;;;;;;;;;4998100;28;20112;-54
2021/04/07 09:15:48;;;;;;;15.73;1.98;;;;;;;;;;5005185;28;20046;-56
2021/04/07 09:18:16;;;;;;;19.58;2.10;;;;;;;;;;4993134;28;20037;-56
2021/04/07 09:20:42;;;;;;;19.45;1.55;;;;;;;;;;5004901;28;20046;-51
2021/04/07 09:23:13;;;;;;;6.90;1.25;;;;;;;;;;5001972;28;20402;-52
2021/04/07 09:25:45;;;;;;;9.35;1.15;;;;;;;;;;5010203;28;20045;-58
2021/04/07 09:28:11;;;;;;;11.07;1.60;;;;;;;;;;5004115;28;20067;-58
2021/04/07 09:30:43;;;;;;;9.50;1.52;;;;;;;;;;4982240;28;20042;-54
2021/04/07 09:33:10;;;;;;;24.60;2.72;;;;;;;;;;4982821;28;20054;-57
2021/04/07 09:35:38;;;;;;;28.10;2.60;;;;;;;;;;5012090;28;20050;-56
2021/04/07 09:38:04;;;;;;;21.23;1.77;;;;;;;;;;5024498;28;20038;-54
2021/04/07 09:40:30;;;;;;;22.77;2.10;;;;;;;;;;5017978;28;20121;-57
2021/04/07 09:42:59;;;;;;;14.75;1.65;;;;;;;;;;5020156;28;20098;-55
2021/04/07 09:45:26;;;;;;;8.57;1.27;;;;;;;;;;5012018;28;20041;-55
2021/04/07 09:47:55;;;;;;;14.07;1.88;;;;;;;;;;5002158;28;20040;-55
2021/04/07 09:50:21;;;;;;;29.35;3.17;;;;;;;;;;5008389;28;20058;-55
2021/04/07 09:52:47;;;;;;;16.50;2.00;;;;;;;;;;5020556;28;20045;-58
2021/04/07 09:55:23;;;;;;;23.10;3.80;;;;;;;;;;5011306;28;20410;-56
2021/04/07 09:57:56;;;;;;;7.82;1.23;;;;;;;;;;5001193;28;20050;-50
2021/04/07 10:00:28;;;;;;;12.68;1.73;;;;;;;;;;5005417;28;20046;-57
2021/04/07 10:02:56;;;;;;;12.45;1.42;;;;;;;;;;5038797;28;20052;-55
2021/04/07 10:05:25;;;;;;;25.20;2.40;;;;;;;;;;5013813;28;20041;-56
2021/04/07 10:07:51;;;;;;;17.25;1.92;;;;;;;;;;5002616;28;20144;-54
2021/04/07 10:10:17;;;;;;;19.27;1.35;;;;;;;;;;4999492;28;20050;-57
2021/04/07 10:12:45;;;;;;;29.13;3.05;;;;;;;;;;5023877;28;20052;-55
2021/04/07 10:15:13;;;;;;;16.40;2.13;;;;;;;;;;5018165;28;20409;-57
2021/04/07 10:17:41;;;;;;;19.67;2.13;;;;;;;;;;4982951;28;20049;-56
2021/04/07 10:20:07;;;;;;;23.42;2.53;;;;;;;;;;4982529;28;20038;-56
2021/04/07 10:22:34;;;;;;;13.10;0.93;;;;;;;;;;5010073;28;20043;-55
2021/04/07 10:25:04;;;;;;;7.63;0.95;;;;;;;;;;4988988;28;20038;-52
2021/04/07 10:27:30;;;;;;;14.98;1.50;;;;;;;;;;4996926;28;20082;-57
2021/04/07 10:30:06;;;;;;;11.88;1.50;;;;;;;;;;5002710;28;20038;-59
2021/04/07 10:32:44;;;;;;;18.83;2.38;;;;;;;;;;4998173;28;20038;-58
2021/04/07 10:35:17;;;;;;;15.90;1.63;;;;;;;;;;5002838;28;20524;-56
2021/04/07 10:37:50;;;;;;;14.60;1.10;;;;;;;;;;5012406;28;20307;-57
2021/04/07 10:40:18;;;;;;;7.43;0.90;;;;;;;;;;5022958;28;20037;-59
2021/04/07 10:42:45;;;;;;;10.32;1.00;;;;;;;;;;5007051;28;20038;-55
2021/04/07 10:45:11;;;;;;;7.53;0.90;;;;;;;;;;5009878;28;20038;-57
2021/04/07 10:47:37;;;;;;;7.38;0.85;;;;;;;;;;5006802;28;20049;-54
2021/04/07 10:50:06;;;;;;;9.52;1.50;;;;;;;;;;4982601;28;20093;-53
2021/04/07 10:52:33;;;;;;;7.57;1.20;;;;;;;;;;5004115;28;20049;-59
2021/04/07 10:54:59;;;;;;;17.10;1.92;;;;;;;;;;5002450;28;20123;-55
2021/04/07 10:57:33;;;;;;;11.60;1.55;;;;;;;;;;4998162;28;20116;-56
2021/04/07 10:59:59;;;;;;;21.70;2.15;;;;;;;;;;4996808;28;20049;-51
2021/04/07 11:02:25;;;;;;;20.65;2.10;;;;;;;;;;4992935;28;20051;-57
2021/04/07 11:04:51;;;;;;;13.68;1.70;;;;;;;;;;5034023;28;20066;-55
2021/04/07 11:07:18;;;;;;;12.30;1.50;;;;;;;;;;5012731;28;20060;-57
2021/04/07 11:09:46;;;;;;;10.75;1.30;;;;;;;;;;5002012;28;20046;-58
2021/04/07 11:12:12;;;;;;;14.95;1.80;;;;;;;;;;4998818;28;20046;-57
2021/04/07 11:14:39;;;;;;;21.58;2.03;;;;;;;;;;4976856;28;20042;-57
2021/04/07 11:17:05;;;;;;;22.02;2.42;;;;;;;;;;4981880;28;20039;-57
2021/04/07 11:19:35;;;;;;;13.73;1.42;;;;;;;;;;4993780;28;20049;-54
2021/04/07 11:22:04;;;;;;;12.95;1.63;;;;;;;;;;5020933;28;20038;-56
2021/04/07 11:24:29;;;;;;;;;;;;;;;;;;5019836;28;20030;-58
2021/04/07 11:26:57;;;;;;;14.48;1.50;;;;;;;;;;5010012;28;20250;-57
2021/04/07 11:29:23;;;;;;;15.95;1.40;;;;;;;;;;4996282;28;20172;-57
2021/04/07 11:31:50;;;;;;;11.20;1.35;;;;;;;;;;5001377;28;20141;-54
2021/04/07 11:34:22;;;;;;;16.33;1.67;;;;;;;;;;4998422;28;20030;-60
2021/04/07 11:37:01;;;;;;;16.88;2.42;;;;;;;;;;5017531;28;20464;-59
2021/04/07 11:39:34;;;;;;;10.73;1.27;;;;;;;;;;5011239;28;20109;-59
2021/04/07 11:42:13;;;;;;;8.25;1.52;;;;;;;;;;4984693;28;20049;-60
2021/04/07 11:44:39;;;;;;;10.27;1.10;;;;;;;;;;4995012;28;20054;-60
2021/04/07 11:47:05;;;;;;;12.52;1.75;;;;;;;;;;5001239;28;20041;-59
2021/04/07 11:49:32;;;;;;;12.27;1.35;;;;;;;;;;4998383;28;20217;-56
2021/04/07 11:51:58;;;;;;;15.68;1.35;;;;;;;;;;5000880;28;20030;-59
2021/04/07 11:54:24;;;;;;;10.93;1.80;;;;;;;;;;4996719;28;20054;-57
2021/04/07 11:56:51;;;;;;;14.27;1.60;;;;;;;;;;5002675;28;20038;-57
2021/04/07 11:59:18;;;;;;;7.28;1.23;;;;;;;;;;4994707;28;20481;-57
2021/04/07 12:01:45;;;;;;;10.77;1.63;;;;;;;;;;4980744;28;20050;-58
2021/04/07 12:04:11;;;;;;;8.75;1.17;;;;;;;;;;5001790;28;20504;-58
2021/04/07 12:06:37;;;;;;;10.50;1.65;;;;;;;;;;5032043;28;20033;-58
2021/04/07 12:09:04;;;;;;;22.95;2.05;;;;;;;;;;5023204;28;20041;-57
2021/04/07 12:11:31;;;;;;;8.73;1.27;;;;;;;;;;5003868;28;20417;-57
2021/04/07 12:13:57;;;;;;;21.52;2.67;;;;;;;;;;5027189;28;20041;-60
2021/04/07 12:16:24;;;;;;;10.93;1.77;;;;;;;;;;5011479;28;20052;-60
2021/04/07 12:18:50;;;;;;;14.50;1.48;;;;;;;;;;5015227;28;20052;-52
2021/04/07 12:21:16;;;;;;;12.75;1.42;;;;;;;;;;5031196;28;20065;-60
2021/04/07 12:23:42;;;;;;;10.50;1.27;;;;;;;;;;5016782;28;20069;-60
2021/04/07 12:26:11;;;;;;;12.93;1.38;;;;;;;;;;5012147;28;20033;-60
2021/04/07 12:28:37;;;;;;;6.40;1.10;;;;;;;;;;5014602;28;20057;-58
2021/04/07 12:31:03;;;;;;;10.15;1.45;;;;;;;;;;5008450;28;20056;-55
2021/04/07 12:33:30;;;;;;;7.38;1.23;;;;;;;;;;5012868;28;20052;-59
2021/04/07 12:35:58;;;;;;;16.00;1.40;;;;;;;;;;5013007;28;21137;-59
2021/04/07 12:38:25;;;;;;;15.35;1.70;;;;;;;;;;5033958;28;20065;-60
2021/04/07 12:40:53;;;;;;;19.48;1.60;;;;;;;;;;5014598;28;20065;-60
2021/04/07 12:43:20;;;;;;;9.98;1.33;;;;;;;;;;5012658;28;20057;-59
2021/04/07 12:45:46;;;;;;;9.25;1.48;;;;;;;;;;5015302;28;20049;-58
2021/04/07 12:48:12;;;;;;;8.75;1.20;;;;;;;;;;5029139;28;20052;-58
2021/04/07 12:50:39;;;;;;;11.95;1.50;;;;;;;;;;5033382;28;20049;-58
2021/04/07 12:53:05;;;;;;;14.30;2.10;;;;;;;;;;5013084;28;20046;-57
2021/04/07 12:55:32;;;;;;;11.23;1.48;;;;;;;;;;5019792;28;20046;-58
2021/04/07 12:57:58;;;;;;;11.35;1.92;;;;;;;;;;5020268;28;20037;-53
2021/04/07 13:00:24;;;;;;;9.10;1.75;;;;;;;;;;5023956;28;20427;-58
2021/04/07 13:02:54;;;;;;;15.27;2.03;;;;;;;;;;5019250;28;20038;-59
2021/04/07 13:05:20;;;;;;;10.15;1.60;;;;;;;;;;5023241;28;20070;-59
2021/04/07 13:07:47;;;;;;;11.40;1.50;;;;;;;;;;5019081;28;20037;-59
2021/04/07 13:10:13;;;;;;;13.32;1.83;;;;;;;;;;5023460;28;20135;-59
2021/04/07 13:12:40;;;;;;;10.43;1.50;;;;;;;;;;5014932;28;20078;-59
2021/04/07 13:15:09;;;;;;;11.30;1.40;;;;;;;;;;5002581;28;20046;-54
2021/04/07 13:17:35;;;;;;;13.25;2.22;;;;;;;;;;5018772;28;20034;-59
2021/04/07 13:20:02;;;;;;;17.90;1.80;;;;;;;;;;5023901;28;20033;-59
2021/04/07 13:22:28;;;;;;;13.93;1.55;;;;;;;;;;5019957;28;20131;-58
2021/04/07 13:24:55;;;;;;;4.70;0.80;;;;;;;;;;5038019;28;20445;-59
2021/04/07 13:27:21;;;;;;;11.25;1.00;;;;;;;;;;5023498;28;20050;-60
2021/04/07 13:29:47;;;;;;;15.02;1.67;;;;;;;;;;5004147;28;20042;-57
2021/04/07 13:32:18;;;;;;;12.55;1.33;;;;;;;;;;5020416;28;20034;-56
2021/04/07 13:34:50;;;;;;;11.07;1.35;;;;;;;;;;5006980;28;20042;-57
2021/04/07 13:37:20;;;;;;;12.90;1.48;;;;;;;;;;5004581;28;20560;-60
2021/04/07 13:39:54;;;;;;;13.88;1.75;;;;;;;;;;5011379;28;20058;-59
2021/04/07 13:45:05;;;;;;;7.45;0.98;;;;;;;;;;5002211;28;20042;-60
2021/04/07 13:47:31;;;;;;;13.07;1.85;;;;;;;;;;5001802;28;20046;-59
2021/04/07 13:49:57;;;;;;;10.93;1.50;;;;;;;;;;4999745;28;20066;-58
2021/04/07 13:52:23;;;;;;;12.43;1.73;;;;;;;;;;5001876;28;20398;-59
2021/04/07 13:54:51;;;;;;;16.70;1.70;;;;;;;;;;4998597;28;20149;-58
2021/04/07 13:57:19;;;;;;;14.82;1.83;;;;;;;;;;5003380;28;20625;-58
2021/04/07 13:59:46;;;;;;;9.13;1.15;;;;;;;;;;5005668;28;20504;-58
2021/04/07 14:02:12;;;;;;;15.50;1.40;;;;;;;;;;5022582;28;20049;-59
2021/04/07 14:04:38;;;;;;;12.05;1.98;;;;;;;;;;5027743;28;20049;-58
2021/04/07 14:07:04;;;;;;;13.68;1.48;;;;;;;;;;5025500;28;20052;-58
2021/04/07 14:09:31;;;;;;;16.65;2.13;;;;;;;;;;5021379;28;20041;-58
2021/04/07 14:11:57;;;;;;;15.02;1.13;;;;;;;;;;5006537;28;20045;-58
2021/04/07 14:14:23;;;;;;;13.25;1.65;;;;;;;;;;5006489;28;20034;-59
2021/04/07 14:16:51;;;;;;;12.82;1.85;;;;;;;;;;5002588;28;20125;-60
2021/04/07 14:19:17;;;;;;;13.80;1.02;;;;;;;;;;5005514;28;20104;-58
2021/04/07 14:21:45;;;;;;;8.25;1.45;;;;;;;;;;5018298;28;20041;-60
2021/04/07 14:24:11;;;;;;;21.80;2.28;;;;;;;;;;5025810;28;20037;-61
2021/04/07 14:26:37;;;;;;;12.88;1.20;;;;;;;;;;5026450;28;20048;-60
2021/04/07 14:29:04;;;;;;;16.30;1.67;;;;;;;;;;5013124;28;20065;-60
2021/04/07 14:31:32;;;;;;;19.05;1.80;;;;;;;;;;5010859;28;20054;-59
2021/04/07 14:34:03;;;;;;;9.60;1.25;;;;;;;;;;5016093;28;20065;-60
2021/04/07 14:36:29;;;;;;;10.18;1.20;;;;;;;;;;5021549;28;20049;-62
2021/04/07 14:38:55;;;;;;;10.07;1.70;;;;;;;;;;5018186;28;20139;-59
2021/04/07 14:41:21;;;;;;;6.68;1.05;;;;;;;;;;5009240;28;20068;-59